createdAt,value
2018-04-14T00:00:33.497Z,17.11
2018-04-14T00:03:02.028Z,17.10
2018-04-14T00:05:30.496Z,17.07
2018-04-14T00:07:58.960Z,17.04
2018-04-14T00:10:27.469Z,17.06
2018-04-14T00:12:55.990Z,17.02
2018-04-14T00:15:24.526Z,17.01
2018-04-14T00:17:53.001Z,17.03
2018-04-14T00:20:21.483Z,17.03
2018-04-14T00:22:50.024Z,17.03
2018-04-14T00:25:18.529Z,17.02
2018-04-14T00:27:47.000Z,17.00
2018-04-14T00:30:15.472Z,16.94
2018-04-14T00:32:43.995Z,16.90
2018-04-14T00:35:12.484Z,16.94
2018-04-14T00:37:40.948Z,16.87
2018-04-14T00:40:09.474Z,16.86
2018-04-14T00:42:37.936Z,16.79
2018-04-14T00:45:06.430Z,16.75
2018-04-14T00:47:34.892Z,16.78
2018-04-14T00:50:03.401Z,16.69
2018-04-14T00:52:31.904Z,16.67
2018-04-14T00:55:00.419Z,16.71
2018-04-14T00:57:28.904Z,16.70
2018-04-14T00:59:57.385Z,16.72
2018-04-14T01:02:25.908Z,16.72
2018-04-14T01:04:54.390Z,16.73
2018-04-14T01:07:22.903Z,16.66
2018-04-14T01:09:51.401Z,16.62
2018-04-14T01:12:19.888Z,16.61
2018-04-14T01:14:48.400Z,16.59
2018-04-14T01:17:16.909Z,16.58
2018-04-14T01:19:45.462Z,16.56
2018-04-14T01:22:13.996Z,16.58
2018-04-14T01:24:42.533Z,16.52
2018-04-14T01:27:11.040Z,16.52
2018-04-14T01:29:39.541Z,16.48
2018-04-14T01:32:08.000Z,16.45
2018-04-14T01:34:36.530Z,16.36
2018-04-14T01:37:04.992Z,16.36
2018-04-14T01:39:33.508Z,16.28
2018-04-14T01:42:02.046Z,16.27
2018-04-14T01:44:30.505Z,16.23
2018-04-14T01:46:59.012Z,16.21
2018-04-14T01:49:27.484Z,16.18
2018-04-14T01:51:56.009Z,16.17
2018-04-14T01:54:24.449Z,16.15
2018-04-14T01:56:52.988Z,16.12
2018-04-14T01:59:21.449Z,16.10
2018-04-14T02:01:49.916Z,16.07
2018-04-14T02:04:18.433Z,16.10
2018-04-14T02:06:46.911Z,16.09
2018-04-14T02:09:15.452Z,16.07
2018-04-14T02:11:44.006Z,16.02
2018-04-14T02:14:12.518Z,16.01
2018-04-14T02:16:41.114Z,16.00
2018-04-14T02:19:09.596Z,15.96
2018-04-14T02:21:38.068Z,15.94
2018-04-14T02:24:06.564Z,15.89
2018-04-14T02:26:35.085Z,15.81
2018-04-14T02:29:03.571Z,15.74
2018-04-14T02:31:32.070Z,15.68
2018-04-14T02:34:00.577Z,15.65
2018-04-14T02:36:29.021Z,15.60
2018-04-14T02:38:57.516Z,15.59
2018-04-14T02:41:25.981Z,15.56
2018-04-14T02:43:54.497Z,15.49
2018-04-14T02:46:22.960Z,15.49
2018-04-14T02:48:51.491Z,15.47
2018-04-14T02:51:19.959Z,15.45
2018-04-14T02:53:48.444Z,15.42
2018-04-14T02:56:16.944Z,15.42
2018-04-14T02:58:45.452Z,15.40
2018-04-14T03:01:13.991Z,15.36
2018-04-14T03:03:42.479Z,15.34
2018-04-14T03:06:10.948Z,15.29
2018-04-14T03:08:39.476Z,15.27
2018-04-14T03:11:07.946Z,15.22
2018-04-14T03:13:36.484Z,15.21
2018-04-14T03:16:04.992Z,15.21
2018-04-14T03:18:33.514Z,15.20
2018-04-14T03:21:01.989Z,15.09
2018-04-14T03:23:30.895Z,15.14
2018-04-14T03:25:59.375Z,15.13
2018-04-14T03:28:27.882Z,15.13
2018-04-14T03:30:56.435Z,15.11
2018-04-14T03:33:24.953Z,15.10
2018-04-14T03:35:53.440Z,15.06
2018-04-14T03:38:21.941Z,15.00
2018-04-14T03:40:50.402Z,15.09
2018-04-14T03:43:18.864Z,15.09
2018-04-14T03:45:47.338Z,15.09
2018-04-14T03:48:15.842Z,15.10
2018-04-14T03:50:44.352Z,15.08
2018-04-14T03:53:12.813Z,15.07
2018-04-14T03:55:41.327Z,15.01
2018-04-14T03:58:09.835Z,15.05
2018-04-14T04:00:38.336Z,15.07
2018-04-14T04:03:06.833Z,15.07
2018-04-14T04:05:35.340Z,15.13
2018-04-14T04:08:03.872Z,15.12
2018-04-14T04:10:32.367Z,15.21
2018-04-14T04:13:00.892Z,15.24
2018-04-14T04:15:29.381Z,15.23
2018-04-14T04:17:57.876Z,15.31
2018-04-14T04:20:39.014Z,15.21
2018-04-14T04:23:19.252Z,15.38
2018-04-14T04:25:47.490Z,15.40
2018-04-14T04:28:15.731Z,15.47
2018-04-14T04:30:43.912Z,15.57
2018-04-14T04:33:12.164Z,15.68
2018-04-14T04:35:40.335Z,15.74
2018-04-14T04:38:08.544Z,15.85
2018-04-14T04:40:36.728Z,15.93
2018-04-14T04:43:04.944Z,16.00
2018-04-14T04:45:33.182Z,16.02
2018-04-14T04:48:01.356Z,16.13
2018-04-14T04:50:29.533Z,16.22
2018-04-14T04:52:57.729Z,16.38
2018-04-14T04:55:25.896Z,16.56
2018-04-14T04:57:54.110Z,16.69
2018-04-14T05:00:22.294Z,16.91
2018-04-14T05:02:50.500Z,17.05
2018-04-14T05:05:18.684Z,17.24
2018-04-14T05:07:46.919Z,17.45
2018-04-14T05:10:15.103Z,17.61
2018-04-14T05:12:43.272Z,17.82
2018-04-14T05:15:11.484Z,17.84
2018-04-14T05:17:39.670Z,17.99
2018-04-14T05:20:07.870Z,18.05
2018-04-14T05:22:36.041Z,18.18
2018-04-14T05:25:04.267Z,18.27
2018-04-14T05:27:32.466Z,18.43
2018-04-14T05:30:00.657Z,18.51
2018-04-14T05:32:28.879Z,18.49
2018-04-14T05:34:57.057Z,18.64
2018-04-14T05:37:25.286Z,18.62
2018-04-14T05:39:53.461Z,18.71
2018-04-14T05:42:21.680Z,18.80
2018-04-14T05:44:49.889Z,18.72
2018-04-14T05:47:18.057Z,19.04
2018-04-14T05:49:46.282Z,19.11
2018-04-14T05:52:14.499Z,19.12
2018-04-14T05:54:42.730Z,19.18
2018-04-14T05:57:10.922Z,19.42
2018-04-14T05:59:39.111Z,19.52
2018-04-14T06:02:07.328Z,19.61
2018-04-14T06:04:35.495Z,19.59
2018-04-14T06:07:03.700Z,19.72
2018-04-14T06:09:31.942Z,19.85
2018-04-14T06:12:00.134Z,19.99
2018-04-14T06:14:28.308Z,20.17
2018-04-14T06:16:56.530Z,20.15
2018-04-14T06:19:24.708Z,20.31
2018-04-14T06:21:52.925Z,20.45
2018-04-14T06:24:21.116Z,20.43
2018-04-14T06:26:49.337Z,20.61
2018-04-14T06:29:17.543Z,20.85
2018-04-14T06:31:45.760Z,20.75
2018-04-14T06:34:13.998Z,20.78
2018-04-14T06:36:42.177Z,21.05
2018-04-14T06:39:10.400Z,21.09
2018-04-14T06:41:38.600Z,21.19
2018-04-14T06:44:06.826Z,21.23
2018-04-14T06:46:35.131Z,21.07
2018-04-14T06:49:03.309Z,21.22
2018-04-14T06:51:31.543Z,21.47
2018-04-14T06:53:59.757Z,21.81
2018-04-14T06:56:27.985Z,21.79
2018-04-14T06:58:56.169Z,21.94
2018-04-14T07:01:24.394Z,22.14
2018-04-14T07:03:52.568Z,22.19
2018-04-14T07:06:20.793Z,22.29
2018-04-14T07:08:48.980Z,22.40
2018-04-14T07:11:17.156Z,22.63
2018-04-14T07:13:45.416Z,22.49
2018-04-14T07:16:13.584Z,22.56
2018-04-14T07:18:41.777Z,22.54
2018-04-14T07:21:09.948Z,22.33
2018-04-14T07:23:38.165Z,22.47
2018-04-14T07:26:06.324Z,22.66
2018-04-14T07:28:34.536Z,22.95
2018-04-14T07:31:02.717Z,22.84
2018-04-14T07:33:31.024Z,23.03
2018-04-14T07:35:59.200Z,23.12
2018-04-14T07:38:27.381Z,23.30
2018-04-14T07:40:55.588Z,23.10
2018-04-14T07:43:23.760Z,23.37
2018-04-14T07:45:51.980Z,23.53
2018-04-14T07:48:20.153Z,23.64
2018-04-14T07:50:48.372Z,23.66
2018-04-14T07:53:16.553Z,23.90
2018-04-14T07:55:44.737Z,23.81
2018-04-14T07:58:12.979Z,23.79
2018-04-14T08:00:41.186Z,23.60
2018-04-14T08:03:09.419Z,23.86
2018-04-14T08:05:37.632Z,24.08
2018-04-14T08:08:05.842Z,23.94
2018-04-14T08:10:34.012Z,23.99
2018-04-14T08:13:02.244Z,24.20
2018-04-14T08:15:30.438Z,24.23
2018-04-14T08:17:58.617Z,24.36
2018-04-14T08:20:26.825Z,24.37
2018-04-14T08:22:55.029Z,24.51
2018-04-14T08:25:23.244Z,24.66
2018-04-14T08:27:51.459Z,24.78
2018-04-14T08:30:19.648Z,24.58
2018-04-14T08:32:47.856Z,24.63
2018-04-14T08:35:16.032Z,24.73
2018-04-14T08:37:44.257Z,24.89
2018-04-14T08:40:12.451Z,24.79
2018-04-14T08:42:40.636Z,24.97
2018-04-14T08:45:08.853Z,25.13
2018-04-14T08:47:37.028Z,25.03
2018-04-14T08:50:05.248Z,24.99
2018-04-14T08:52:33.418Z,25.30
2018-04-14T08:55:01.592Z,25.50
2018-04-14T08:57:29.797Z,25.56
2018-04-14T08:59:57.981Z,25.71
2018-04-14T09:02:26.197Z,25.71
2018-04-14T09:04:54.376Z,25.76
2018-04-14T09:07:22.592Z,25.77
2018-04-14T09:09:50.780Z,25.92
2018-04-14T09:12:19.008Z,26.03
2018-04-14T09:14:47.229Z,26.08
2018-04-14T09:17:15.421Z,25.95
2018-04-14T09:19:43.923Z,25.91
2018-04-14T09:22:12.401Z,25.85
2018-04-14T09:24:40.912Z,26.08
2018-04-14T09:27:09.400Z,26.19
2018-04-14T09:29:37.908Z,26.17
2018-04-14T09:32:06.373Z,26.16
2018-04-14T09:34:34.884Z,26.30
2018-04-14T09:37:03.400Z,26.41
2018-04-14T09:39:31.955Z,26.42
2018-04-14T09:42:00.438Z,26.56
2018-04-14T09:44:28.941Z,26.67
2018-04-14T09:46:57.449Z,26.57
2018-04-14T09:49:25.948Z,26.68
2018-04-14T09:51:54.408Z,26.58
2018-04-14T09:54:22.908Z,26.74
2018-04-14T09:56:51.413Z,26.69
2018-04-14T09:59:19.927Z,26.80
2018-04-14T10:01:51.207Z,26.81
2018-04-14T10:04:19.749Z,27.00
2018-04-14T10:06:48.208Z,26.99
2018-04-14T10:09:16.709Z,26.97
2018-04-14T10:11:45.230Z,27.02
2018-04-14T10:14:13.700Z,27.08
2018-04-14T10:16:42.172Z,27.22
2018-04-14T10:19:10.681Z,27.26
2018-04-14T10:21:39.288Z,27.32
2018-04-14T10:24:07.824Z,27.38
2018-04-14T10:26:36.312Z,27.36
2018-04-14T10:29:04.807Z,27.33
2018-04-14T10:31:33.326Z,27.30
2018-04-14T10:34:01.855Z,27.50
2018-04-14T10:36:30.330Z,27.56
2018-04-14T10:38:58.824Z,27.58
2018-04-14T10:41:27.328Z,27.57
2018-04-14T10:43:55.808Z,27.51
2018-04-14T10:46:24.299Z,27.64
2018-04-14T10:48:52.764Z,27.76
2018-04-14T10:51:21.272Z,27.71
2018-04-14T10:53:49.786Z,27.66
2018-04-14T10:56:18.250Z,27.67
2018-04-14T10:58:46.749Z,27.74
2018-04-14T11:01:15.215Z,27.60
2018-04-14T11:03:43.712Z,27.46
2018-04-14T11:06:12.172Z,27.42
2018-04-14T11:08:40.628Z,27.55
2018-04-14T11:11:09.143Z,27.64
2018-04-14T11:13:37.658Z,27.66
2018-04-14T11:16:06.167Z,27.70
2018-04-14T11:18:34.635Z,27.62
2018-04-14T11:21:03.136Z,27.78
2018-04-14T11:23:31.893Z,27.81
2018-04-14T11:26:00.396Z,27.71
2018-04-14T11:28:28.861Z,27.76
2018-04-14T11:30:57.363Z,27.78
2018-04-14T11:33:25.820Z,27.88
2018-04-14T11:35:54.316Z,27.84
2018-04-14T11:38:22.787Z,27.77
2018-04-14T11:40:51.307Z,27.79
2018-04-14T11:43:19.764Z,27.78
2018-04-14T11:45:48.268Z,27.76
2018-04-14T11:48:16.732Z,27.72
2018-04-14T11:50:45.250Z,27.79
2018-04-14T11:53:13.718Z,27.76
2018-04-14T11:55:42.216Z,27.81
2018-04-14T11:58:10.718Z,27.81
2018-04-14T12:00:39.193Z,27.85
2018-04-14T12:03:07.673Z,27.84
2018-04-14T12:05:36.128Z,27.84
2018-04-14T12:08:04.595Z,27.83
2018-04-14T12:10:33.100Z,27.85
2018-04-14T12:13:01.569Z,27.76
2018-04-14T12:15:30.098Z,27.71
2018-04-14T12:17:58.604Z,27.78
2018-04-14T12:20:27.105Z,27.90
2018-04-14T12:22:55.598Z,27.89
2018-04-14T12:25:24.096Z,27.81
2018-04-14T12:27:52.576Z,27.98
2018-04-14T12:30:21.093Z,28.00
2018-04-14T12:32:49.544Z,27.96
2018-04-14T12:35:18.020Z,27.98
2018-04-14T12:37:46.528Z,27.98
2018-04-14T12:40:14.988Z,27.95
2018-04-14T12:42:43.476Z,28.02
2018-04-14T12:45:11.940Z,28.07
2018-04-14T12:47:40.436Z,28.02
2018-04-14T12:50:08.936Z,28.12
2018-04-14T12:52:37.431Z,28.14
2018-04-14T12:55:05.900Z,28.14
2018-04-14T12:57:34.397Z,28.14
2018-04-14T13:00:02.882Z,28.19
2018-04-14T13:02:31.365Z,28.17
2018-04-14T13:04:59.874Z,28.23
2018-04-14T13:07:28.338Z,28.22
2018-04-14T13:09:56.828Z,28.25
2018-04-14T13:12:25.342Z,28.21
2018-04-14T13:14:53.809Z,28.24
2018-04-14T13:17:22.272Z,28.25
2018-04-14T13:19:50.772Z,28.21
2018-04-14T13:22:19.284Z,28.34
2018-04-14T13:24:47.767Z,28.22
2018-04-14T13:27:16.272Z,28.29
2018-04-14T13:29:44.705Z,28.24
2018-04-14T13:32:13.216Z,28.34
2018-04-14T13:34:41.686Z,28.23
2018-04-14T13:37:10.188Z,28.20
2018-04-14T13:39:38.684Z,28.28
2018-04-14T13:42:07.166Z,28.28
2018-04-14T13:44:35.664Z,28.19
2018-04-14T13:47:04.119Z,28.21
2018-04-14T13:49:32.621Z,28.22
2018-04-14T13:52:01.101Z,28.26
2018-04-14T13:54:29.616Z,28.27
2018-04-14T13:56:58.073Z,28.26
2018-04-14T13:59:26.536Z,28.28
2018-04-14T14:01:55.021Z,28.22
2018-04-14T14:04:23.515Z,28.16
2018-04-14T14:06:51.954Z,28.26
2018-04-14T14:09:20.456Z,28.19
2018-04-14T14:11:48.956Z,28.12
2018-04-14T14:14:17.441Z,28.15
2018-04-14T14:16:45.941Z,28.09
2018-04-14T14:19:14.448Z,28.08
2018-04-14T14:21:42.887Z,28.03
2018-04-14T14:24:11.352Z,27.97
2018-04-14T14:26:39.811Z,27.96
2018-04-14T14:29:08.309Z,28.01
2018-04-14T14:31:36.776Z,27.91
2018-04-14T14:34:05.248Z,27.96
2018-04-14T14:36:33.739Z,27.89
2018-04-14T14:39:02.208Z,27.80
2018-04-14T14:41:30.739Z,27.78
2018-04-14T14:43:59.245Z,27.69
2018-04-14T14:46:27.740Z,27.71
2018-04-14T14:48:56.207Z,27.75
2018-04-14T14:51:24.701Z,27.62
2018-04-14T14:53:53.180Z,27.54
2018-04-14T14:56:21.692Z,27.54
2018-04-14T14:58:50.203Z,27.51
2018-04-14T15:01:18.750Z,27.40
2018-04-14T15:03:47.204Z,27.39
2018-04-14T15:06:15.720Z,27.30
2018-04-14T15:08:44.197Z,27.27
2018-04-14T15:11:12.704Z,27.29
2018-04-14T15:13:41.168Z,27.24
2018-04-14T15:16:09.668Z,27.09
2018-04-14T15:18:38.134Z,27.06
2018-04-14T15:21:06.631Z,27.01
2018-04-14T15:23:35.121Z,27.04
2018-04-14T15:26:03.584Z,27.01
2018-04-14T15:28:32.080Z,26.90
2018-04-14T15:31:00.568Z,26.90
2018-04-14T15:33:29.060Z,26.84
2018-04-14T15:35:57.968Z,26.77
2018-04-14T15:38:26.486Z,26.64
2018-04-14T15:40:54.962Z,26.67
2018-04-14T15:43:23.483Z,26.64
2018-04-14T15:45:51.952Z,26.53
2018-04-14T15:48:20.471Z,26.45
2018-04-14T15:50:48.939Z,26.45
2018-04-14T15:53:17.408Z,26.39
2018-04-14T15:55:45.912Z,26.29
2018-04-14T15:58:14.390Z,26.23
2018-04-14T16:00:42.880Z,26.24
2018-04-14T16:03:11.337Z,26.07
2018-04-14T16:05:39.847Z,26.10
2018-04-14T16:08:08.309Z,26.03
2018-04-14T16:10:36.812Z,25.97
2018-04-14T16:13:05.328Z,25.77
2018-04-14T16:15:33.848Z,25.71
2018-04-14T16:18:02.364Z,25.57
2018-04-14T16:20:30.892Z,25.47
2018-04-14T16:22:59.403Z,25.35
2018-04-14T16:25:27.863Z,25.21
2018-04-14T16:27:56.357Z,25.14
2018-04-14T16:30:24.875Z,25.01
2018-04-14T16:32:53.372Z,24.90
2018-04-14T16:35:21.860Z,24.87
2018-04-14T16:37:50.401Z,24.76
2018-04-14T16:40:18.852Z,24.68
2018-04-14T16:42:47.374Z,24.56
2018-04-14T16:45:15.824Z,24.47
2018-04-14T16:47:44.288Z,24.37
2018-04-14T16:50:12.806Z,24.36
2018-04-14T16:52:41.304Z,24.26
2018-04-14T16:55:09.809Z,24.16
2018-04-14T16:57:38.311Z,24.08
2018-04-14T17:00:06.776Z,23.96
2018-04-14T17:02:35.280Z,23.88
2018-04-14T17:05:03.765Z,23.81
2018-04-14T17:07:32.281Z,23.69
2018-04-14T17:10:00.751Z,23.59
2018-04-14T17:12:29.284Z,23.48
2018-04-14T17:14:57.761Z,23.44
2018-04-14T17:17:26.220Z,23.34
2018-04-14T17:19:54.712Z,23.30
2018-04-14T17:22:23.158Z,23.25
2018-04-14T17:24:51.652Z,23.10
2018-04-14T17:27:20.140Z,23.04
2018-04-14T17:29:48.651Z,22.95
2018-04-14T17:32:17.112Z,22.87
2018-04-14T17:34:45.611Z,22.83
2018-04-14T17:37:14.135Z,22.71
2018-04-14T17:39:42.645Z,22.69
2018-04-14T17:42:11.166Z,22.63
2018-04-14T17:44:39.677Z,22.57
2018-04-14T17:47:08.186Z,22.49
2018-04-14T17:49:36.696Z,22.41
2018-04-14T17:52:05.212Z,22.34
2018-04-14T17:54:33.677Z,22.27
2018-04-14T17:57:02.180Z,22.23
2018-04-14T17:59:30.647Z,22.18
2018-04-14T18:01:59.160Z,22.11
2018-04-14T18:04:27.658Z,22.00
2018-04-14T18:06:56.171Z,22.01
2018-04-14T18:09:24.645Z,21.92
2018-04-14T18:11:53.152Z,21.77
2018-04-14T18:14:21.694Z,21.82
2018-04-14T18:16:50.210Z,21.74
2018-04-14T18:19:18.708Z,21.66
2018-04-14T18:21:47.216Z,21.56
2018-04-14T18:24:15.729Z,21.58
2018-04-14T18:26:44.192Z,21.55
2018-04-14T18:29:12.656Z,21.48
2018-04-14T18:31:41.184Z,21.39
2018-04-14T18:34:09.641Z,21.33
2018-04-14T18:36:38.109Z,21.24
2018-04-14T18:39:06.686Z,21.19
2018-04-14T18:41:35.209Z,21.07
2018-04-14T18:44:03.729Z,21.01
2018-04-14T18:46:32.220Z,20.95
2018-04-14T18:49:00.689Z,20.86
2018-04-14T18:51:29.198Z,20.70
2018-04-14T18:53:57.738Z,20.66
2018-04-14T18:56:26.259Z,20.68
2018-04-14T18:58:54.716Z,20.62
2018-04-14T19:01:23.274Z,20.49
2018-04-14T19:03:51.764Z,20.45
2018-04-14T19:06:20.268Z,20.39
2018-04-14T19:08:48.702Z,20.34
2018-04-14T19:11:17.172Z,20.33
2018-04-14T19:13:45.680Z,20.20
2018-04-14T19:16:14.132Z,20.15
2018-04-14T19:18:42.632Z,20.12
2018-04-14T19:21:11.132Z,20.07
2018-04-14T19:23:39.624Z,20.04
2018-04-14T19:26:08.125Z,20.01
2018-04-14T19:28:36.612Z,19.97
2018-04-14T19:31:05.056Z,19.89
2018-04-14T19:33:33.540Z,19.78
2018-04-14T19:36:02.005Z,19.68
2018-04-14T19:38:30.496Z,19.65
2018-04-14T19:40:59.004Z,19.48
2018-04-14T19:43:27.483Z,19.35
2018-04-14T19:45:55.941Z,19.31
2018-04-14T19:48:24.437Z,19.27
2018-04-14T19:50:52.946Z,19.21
2018-04-14T19:53:21.444Z,19.04
2018-04-14T19:55:49.942Z,19.09
2018-04-14T19:58:18.437Z,19.01
2018-04-14T20:00:46.934Z,18.91
2018-04-14T20:03:15.396Z,18.83
2018-04-14T20:05:43.877Z,18.80
2018-04-14T20:08:12.345Z,18.68
2018-04-14T20:10:40.844Z,18.64
2018-04-14T20:13:09.311Z,18.63
2018-04-14T20:15:37.815Z,18.56
2018-04-14T20:18:06.277Z,18.44
2018-04-14T20:20:34.773Z,18.45
2018-04-14T20:23:03.247Z,18.34
2018-04-14T20:25:31.763Z,18.20
2018-04-14T20:28:00.263Z,18.08
2018-04-14T20:30:28.719Z,18.08
2018-04-14T20:32:57.220Z,17.98
2018-04-14T20:35:25.712Z,18.00
2018-04-14T20:37:54.204Z,17.89
2018-04-14T20:40:22.657Z,17.74
2018-04-14T20:42:51.160Z,17.66
2018-04-14T20:45:19.631Z,17.61
2018-04-14T20:47:48.117Z,17.50
2018-04-14T20:50:16.612Z,17.35
2018-04-14T20:52:45.144Z,17.32
2018-04-14T20:55:13.632Z,17.23
2018-04-14T20:57:42.098Z,17.19
2018-04-14T21:00:10.589Z,17.08
2018-04-14T21:02:39.048Z,17.06
2018-04-14T21:05:07.561Z,16.97
2018-04-14T21:07:36.056Z,16.97
2018-04-14T21:10:04.577Z,16.88
2018-04-14T21:12:33.052Z,16.90
2018-04-14T21:15:01.564Z,16.76
2018-04-14T21:17:30.057Z,16.78
2018-04-14T21:19:58.577Z,16.83
2018-04-14T21:22:27.060Z,16.78
2018-04-14T21:24:56.379Z,16.77
2018-04-14T21:27:24.868Z,16.77
2018-04-14T21:29:53.324Z,16.59
2018-04-14T21:32:21.821Z,16.72
2018-04-14T21:34:50.285Z,16.62
2018-04-14T21:37:18.765Z,16.60
2018-04-14T21:39:47.220Z,16.55
2018-04-14T21:42:15.735Z,16.58
2018-04-14T21:44:44.196Z,16.51
2018-04-14T21:47:12.708Z,16.57
2018-04-14T21:49:41.209Z,16.53
2018-04-14T21:52:09.672Z,16.50
2018-04-14T21:54:38.129Z,16.39
2018-04-14T21:57:06.592Z,16.35
2018-04-14T21:59:35.089Z,16.34
2018-04-14T22:02:03.600Z,16.33
2018-04-14T22:04:32.074Z,16.37
2018-04-14T22:07:00.578Z,16.33
2018-04-14T22:09:29.067Z,16.28
2018-04-14T22:11:57.536Z,16.28
2018-04-14T22:14:32.944Z,16.24
2018-04-14T22:17:01.444Z,16.29
2018-04-14T22:19:29.936Z,16.26
2018-04-14T22:21:58.437Z,16.18
2018-04-14T22:24:26.924Z,16.07
2018-04-14T22:26:55.452Z,16.03
2018-04-14T22:29:23.914Z,15.96
2018-04-14T22:31:52.408Z,15.90
2018-04-14T22:34:20.908Z,15.79
2018-04-14T22:36:49.366Z,15.65
2018-04-14T22:39:17.856Z,15.54
2018-04-14T22:41:46.312Z,15.52
2018-04-14T22:44:14.845Z,15.37
2018-04-14T22:46:43.293Z,15.32
2018-04-14T22:49:11.784Z,15.20
2018-04-14T22:51:40.259Z,15.11
2018-04-14T22:54:08.768Z,15.03
2018-04-14T22:56:37.237Z,14.98
2018-04-14T22:59:05.740Z,14.90
2018-04-14T23:01:34.240Z,14.83
2018-04-14T23:04:02.701Z,14.71
2018-04-14T23:06:31.208Z,14.49
2018-04-14T23:08:59.734Z,14.58
2018-04-14T23:11:28.229Z,14.60
2018-04-14T23:13:56.693Z,14.58
2018-04-14T23:16:25.212Z,14.50
2018-04-14T23:18:53.712Z,14.46
2018-04-14T23:21:22.223Z,14.47
2018-04-14T23:23:50.732Z,14.42
2018-04-14T23:26:19.251Z,14.34
2018-04-14T23:28:47.720Z,14.20
2018-04-14T23:31:16.256Z,13.98
2018-04-14T23:33:44.764Z,13.99
2018-04-14T23:36:13.277Z,13.89
2018-04-14T23:38:41.788Z,13.88
2018-04-14T23:41:10.270Z,13.79
2018-04-14T23:43:38.770Z,13.69
2018-04-14T23:46:07.245Z,13.68
2018-04-14T23:48:35.756Z,13.56
2018-04-14T23:51:04.277Z,13.52
2018-04-14T23:53:32.732Z,13.42
2018-04-14T23:56:01.260Z,13.38
2018-04-14T23:58:29.729Z,13.35
